createdAt,value
2018-06-21T00:02:18.208Z,9.13
2018-06-21T00:04:52.490Z,8.10
2018-06-21T00:07:26.684Z,8.67
2018-06-21T00:10:01.019Z,7.80
2018-06-21T00:12:35.338Z,7.97
2018-06-21T00:15:09.703Z,7.80
2018-06-21T00:17:44.043Z,7.73
2018-06-21T00:20:18.407Z,8.10
2018-06-21T00:22:52.686Z,8.00
2018-06-21T00:25:26.871Z,7.53
2018-06-21T00:28:01.166Z,8.07
2018-06-21T00:30:35.451Z,7.90
2018-06-21T00:33:09.695Z,7.70
2018-06-21T00:35:44.003Z,7.23
2018-06-21T00:38:18.241Z,7.50
2018-06-21T00:40:52.555Z,7.30
2018-06-21T00:43:26.726Z,7.27
2018-06-21T00:46:01.092Z,7.83
2018-06-21T00:48:35.379Z,7.27
2018-06-21T00:51:09.770Z,7.80
2018-06-21T00:53:44.035Z,7.53
2018-06-21T00:56:20.171Z,8.00
2018-06-21T00:58:54.291Z,8.00
2018-06-21T01:01:28.464Z,8.30
2018-06-21T01:04:02.741Z,8.50
2018-06-21T01:06:37.030Z,8.03
2018-06-21T01:09:11.314Z,8.63
2018-06-21T01:11:45.595Z,8.70
2018-06-21T01:14:19.697Z,8.20
2018-06-21T01:16:53.850Z,8.70
2018-06-21T01:19:28.098Z,8.67
2018-06-21T01:22:02.392Z,8.23
2018-06-21T01:24:36.674Z,8.27
2018-06-21T01:27:11.219Z,8.13
2018-06-21T01:29:45.567Z,8.03
2018-06-21T01:32:19.918Z,8.50
2018-06-21T01:34:54.306Z,8.13
2018-06-21T01:37:28.605Z,7.93
2018-06-21T01:40:02.877Z,8.27
2018-06-21T01:42:37.182Z,7.70
2018-06-21T01:45:11.582Z,7.70
2018-06-21T01:47:45.871Z,7.80
2018-06-21T01:50:20.119Z,7.70
2018-06-21T01:52:54.429Z,7.83
2018-06-21T01:55:28.838Z,8.33
2018-06-21T01:58:03.024Z,7.63
2018-06-21T02:00:37.310Z,8.67
2018-06-21T02:03:11.510Z,8.13
2018-06-21T02:05:45.823Z,9.27
2018-06-21T02:08:20.210Z,8.00
2018-06-21T02:10:54.499Z,8.57
2018-06-21T02:13:28.782Z,8.63
2018-06-21T02:16:02.983Z,8.60
2018-06-21T02:18:37.294Z,8.53
2018-06-21T02:21:11.600Z,9.10
2018-06-21T02:23:45.857Z,8.53
2018-06-21T02:26:20.103Z,8.80
2018-06-21T02:28:54.373Z,8.40
2018-06-21T02:31:28.611Z,8.97
2018-06-21T02:34:02.959Z,8.80
2018-06-21T02:36:37.411Z,8.60
2018-06-21T02:39:11.665Z,8.63
2018-06-21T02:41:46.099Z,8.57
2018-06-21T02:44:20.283Z,8.03
2018-06-21T02:46:54.557Z,9.33
2018-06-21T02:49:28.891Z,8.17
2018-06-21T02:52:03.183Z,8.30
2018-06-21T02:54:37.471Z,8.23
2018-06-21T02:57:11.654Z,8.67
2018-06-21T02:59:45.959Z,8.33
2018-06-21T03:02:20.246Z,8.37
2018-06-21T03:04:54.602Z,8.77
2018-06-21T03:07:29.061Z,9.03
2018-06-21T03:10:03.418Z,9.17
2018-06-21T03:12:37.729Z,9.00
2018-06-21T03:15:11.894Z,9.37
2018-06-21T03:17:46.331Z,9.37
2018-06-21T03:20:20.686Z,8.53
2018-06-21T03:22:54.855Z,8.43
2018-06-21T03:25:29.109Z,9.30
2018-06-21T03:28:03.496Z,8.57
2018-06-21T03:30:37.803Z,8.13
2018-06-21T03:33:12.224Z,7.80
2018-06-21T03:35:46.483Z,7.60
2018-06-21T03:38:20.677Z,8.17
2018-06-21T03:40:54.951Z,7.77
2018-06-21T03:43:29.131Z,7.70
2018-06-21T03:46:03.500Z,7.10
2018-06-21T03:48:37.882Z,7.70
2018-06-21T03:51:12.171Z,7.07
2018-06-21T03:53:46.359Z,7.37
2018-06-21T03:56:20.620Z,8.03
2018-06-21T03:58:54.994Z,7.07
2018-06-21T04:01:29.259Z,7.60
2018-06-21T04:04:03.642Z,6.70
2018-06-21T04:06:37.787Z,6.67
2018-06-21T04:09:12.406Z,7.40
2018-06-21T04:11:46.739Z,7.17
2018-06-21T04:14:21.038Z,8.40
2018-06-21T04:16:55.358Z,7.23
2018-06-21T04:19:29.745Z,7.10
2018-06-21T04:22:03.979Z,7.43
2018-06-21T04:24:38.353Z,6.97
2018-06-21T04:27:12.509Z,8.00
2018-06-21T04:29:46.622Z,6.90
2018-06-21T04:32:21.010Z,7.73
2018-06-21T04:34:55.240Z,7.50
2018-06-21T04:37:29.536Z,8.03
2018-06-21T04:40:03.629Z,7.87
2018-06-21T04:42:37.609Z,8.77
2018-06-21T04:45:12.012Z,8.10
2018-06-21T04:47:46.365Z,9.10
2018-06-21T04:50:20.498Z,9.07
2018-06-21T04:52:54.822Z,8.40
2018-06-21T04:55:29.018Z,8.17
2018-06-21T04:58:03.411Z,7.87
2018-06-21T05:00:37.662Z,9.20
2018-06-21T05:03:12.083Z,8.97
2018-06-21T05:05:46.435Z,8.43
2018-06-21T05:08:20.703Z,6.77
2018-06-21T05:10:54.967Z,7.90
2018-06-21T05:13:29.210Z,8.67
2018-06-21T05:16:03.546Z,8.97
2018-06-21T05:18:37.809Z,8.43
2018-06-21T05:21:12.082Z,7.73
2018-06-21T05:23:46.338Z,7.73
2018-06-21T05:26:20.732Z,8.07
2018-06-21T05:28:55.024Z,7.57
2018-06-21T05:31:29.242Z,7.47
2018-06-21T05:34:03.500Z,6.87
2018-06-21T05:36:37.905Z,7.30
2018-06-21T05:39:12.391Z,7.10
2018-06-21T05:41:46.778Z,7.17
2018-06-21T05:44:21.200Z,7.17
2018-06-21T05:46:55.873Z,7.80
2018-06-21T05:49:30.167Z,6.70
2018-06-21T05:52:04.431Z,7.83
2018-06-21T05:54:38.626Z,7.27
2018-06-21T05:57:13.243Z,7.67
2018-06-21T05:59:47.450Z,8.13
2018-06-21T06:02:21.752Z,10.27
2018-06-21T06:04:56.062Z,10.47
2018-06-21T06:07:30.258Z,11.07
2018-06-21T06:10:04.689Z,10.93
2018-06-21T06:12:38.852Z,16.30
2018-06-21T06:15:13.322Z,10.77
2018-06-21T06:17:47.627Z,10.77
2018-06-21T06:20:21.846Z,11.30
2018-06-21T06:22:56.156Z,11.13
2018-06-21T06:25:30.357Z,11.10
2018-06-21T06:28:04.675Z,11.63
2018-06-21T06:30:39.023Z,11.57
2018-06-21T06:33:13.169Z,12.17
2018-06-21T06:35:47.585Z,11.37
2018-06-21T06:38:21.760Z,7.47
2018-06-21T06:40:56.089Z,6.07
2018-06-21T06:43:30.382Z,3.07
2018-06-21T06:46:04.720Z,2.30
2018-06-21T06:48:38.989Z,1.70
2018-06-21T06:51:13.299Z,1.87
2018-06-21T06:53:47.477Z,1.57
2018-06-21T06:56:21.756Z,1.70
2018-06-21T06:58:56.055Z,1.87
2018-06-21T07:01:30.778Z,1.43
2018-06-21T07:04:05.224Z,1.97
2018-06-21T07:06:39.405Z,1.30
2018-06-21T07:09:13.571Z,1.10
2018-06-21T07:11:47.868Z,1.47
2018-06-21T07:14:22.067Z,3.27
2018-06-21T07:16:56.362Z,1.47
2018-06-21T07:19:30.735Z,1.30
2018-06-21T07:22:05.194Z,6.10
2018-06-21T07:24:39.422Z,0.97
2018-06-21T07:27:13.812Z,1.73
2018-06-21T07:29:48.055Z,10.90
2018-06-21T07:32:22.424Z,3.73
2018-06-21T07:34:56.704Z,1.43
2018-06-21T07:37:30.997Z,2.57
2018-06-21T07:40:05.318Z,1.27
2018-06-21T07:42:39.507Z,1.50
2018-06-21T07:45:13.818Z,1.63
2018-06-21T07:47:48.256Z,2.07
2018-06-21T07:50:22.616Z,2.00
2018-06-21T07:52:57.085Z,2.00
2018-06-21T07:55:31.434Z,1.90
2018-06-21T07:58:05.827Z,2.70
2018-06-21T08:00:40.150Z,2.67
2018-06-21T08:03:14.374Z,2.43
2018-06-21T08:05:48.651Z,2.90
2018-06-21T08:08:23.033Z,2.53
2018-06-21T08:10:57.438Z,2.43
2018-06-21T08:13:31.751Z,3.40
2018-06-21T08:16:05.929Z,3.17
2018-06-21T08:18:40.296Z,2.83
2018-06-21T08:21:14.659Z,3.30
2018-06-21T08:23:48.857Z,3.27
2018-06-21T08:26:23.262Z,3.70
2018-06-21T08:28:57.634Z,3.20
2018-06-21T08:31:32.017Z,2.80
2018-06-21T08:34:06.423Z,3.40
2018-06-21T08:36:40.735Z,4.10
2018-06-21T08:39:15.106Z,2.97
2018-06-21T08:41:49.510Z,3.77
2018-06-21T08:44:23.738Z,3.83
2018-06-21T08:46:57.894Z,3.87
2018-06-21T08:49:32.187Z,5.53
2018-06-21T08:52:06.642Z,3.93
2018-06-21T08:54:40.871Z,4.87
2018-06-21T08:57:15.134Z,6.70
2018-06-21T08:59:49.584Z,3.90
2018-06-21T09:02:24.038Z,4.67
2018-06-21T09:04:58.195Z,14.23
2018-06-21T09:07:32.337Z,2.27
2018-06-21T09:10:06.467Z,2.40
2018-06-21T09:12:40.642Z,2.87
2018-06-21T09:15:14.932Z,3.80
2018-06-21T09:17:49.147Z,4.30
2018-06-21T09:20:23.490Z,7.57
2018-06-21T09:22:57.891Z,5.80
2018-06-21T09:25:32.238Z,2.20
2018-06-21T09:28:06.522Z,1.87
2018-06-21T09:30:40.759Z,4.30
2018-06-21T09:33:14.932Z,8.30
2018-06-21T09:35:49.331Z,2.33
2018-06-21T09:38:29.067Z,2.70
2018-06-21T09:41:08.714Z,6.03
2018-06-21T09:43:50.299Z,2.43
2018-06-21T09:46:33.869Z,4.23
2018-06-21T09:49:02.543Z,1.80
2018-06-21T09:51:36.733Z,1.60
2018-06-21T09:54:11.077Z,1.67
2018-06-21T09:56:45.150Z,3.43
2018-06-21T09:59:19.421Z,2.53
2018-06-21T10:01:53.591Z,4.47
2018-06-21T10:04:27.926Z,7.17
2018-06-21T10:07:02.186Z,1.83
2018-06-21T10:09:36.427Z,1.30
2018-06-21T10:12:10.843Z,2.10
2018-06-21T10:14:45.207Z,4.03
2018-06-21T10:17:19.764Z,1.47
2018-06-21T10:19:53.973Z,1.60
2018-06-21T10:22:28.851Z,1.60
2018-06-21T10:25:03.190Z,1.67
2018-06-21T10:27:37.656Z,4.00
2018-06-21T10:30:11.981Z,1.53
2018-06-21T10:32:46.137Z,1.87
2018-06-21T10:35:20.336Z,6.17
2018-06-21T10:37:54.638Z,3.23
2018-06-21T10:40:28.908Z,1.40
2018-06-21T10:43:03.295Z,1.73
2018-06-21T10:45:37.578Z,1.20
2018-06-21T10:48:11.814Z,3.60
2018-06-21T10:50:46.044Z,1.70
2018-06-21T10:53:20.315Z,1.40
2018-06-21T10:55:54.375Z,1.60
2018-06-21T10:58:28.835Z,1.80
2018-06-21T11:01:03.213Z,1.40
2018-06-21T11:03:37.572Z,1.60
2018-06-21T11:06:11.950Z,2.03
2018-06-21T11:08:46.275Z,1.53
2018-06-21T11:11:20.600Z,1.40
2018-06-21T11:13:54.901Z,2.20
2018-06-21T11:16:29.279Z,2.20
2018-06-21T11:19:03.636Z,1.60
2018-06-21T11:21:37.839Z,1.87
2018-06-21T11:24:12.131Z,1.90
2018-06-21T11:26:46.346Z,1.50
2018-06-21T11:29:20.683Z,1.40
2018-06-21T11:31:55.214Z,1.50
2018-06-21T11:34:29.546Z,1.50
2018-06-21T11:37:03.810Z,1.70
2018-06-21T11:39:38.104Z,1.30
2018-06-21T11:42:12.431Z,1.20
2018-06-21T11:44:46.639Z,1.80
2018-06-21T11:47:20.926Z,1.40
2018-06-21T11:49:55.258Z,1.00
2018-06-21T11:52:29.571Z,1.03
2018-06-21T11:55:03.961Z,1.93
2018-06-21T11:57:38.113Z,0.97
2018-06-21T12:00:12.383Z,2.07
2018-06-21T12:02:46.701Z,1.33
2018-06-21T12:05:21.081Z,1.00
2018-06-21T12:07:55.386Z,1.80
2018-06-21T12:10:29.695Z,1.67
2018-06-21T12:13:03.890Z,1.57
2018-06-21T12:15:38.186Z,1.20
2018-06-21T12:18:12.406Z,1.33
2018-06-21T12:20:46.796Z,1.40
2018-06-21T12:23:21.017Z,1.67
2018-06-21T12:25:55.205Z,1.13
2018-06-21T12:28:29.499Z,1.17
2018-06-21T12:31:03.886Z,1.40
2018-06-21T12:33:38.311Z,1.27
2018-06-21T12:36:12.735Z,1.47
2018-06-21T12:38:47.058Z,1.03
2018-06-21T12:41:21.478Z,1.03
2018-06-21T12:43:55.656Z,0.80
2018-06-21T12:46:29.974Z,1.10
2018-06-21T12:49:04.347Z,1.30
2018-06-21T12:51:38.526Z,1.30
2018-06-21T12:54:12.681Z,1.33
2018-06-21T12:56:46.967Z,1.73
2018-06-21T12:59:21.191Z,0.90
2018-06-21T13:01:55.412Z,1.00
2018-06-21T13:04:29.650Z,1.37
2018-06-21T13:07:04.030Z,0.83
2018-06-21T13:09:49.707Z,0.77
2018-06-21T13:12:37.800Z,0.80
2018-06-21T13:15:12.107Z,1.20
2018-06-21T13:17:46.461Z,0.70
2018-06-21T13:20:20.821Z,0.80
2018-06-21T13:22:55.054Z,5.57
2018-06-21T13:25:29.386Z,1.00
2018-06-21T13:28:03.589Z,0.53
2018-06-21T13:30:37.936Z,0.80
2018-06-21T13:33:12.375Z,1.30
2018-06-21T13:35:46.689Z,1.20
2018-06-21T13:38:21.127Z,0.80
2018-06-21T13:40:55.398Z,1.60
2018-06-21T13:43:29.602Z,2.37
2018-06-21T13:46:03.827Z,0.97
2018-06-21T13:48:38.107Z,1.03
2018-06-21T13:51:12.343Z,4.33
2018-06-21T13:53:46.550Z,0.93
2018-06-21T13:56:20.734Z,1.20
2018-06-21T13:58:54.917Z,2.13
2018-06-21T14:01:29.119Z,1.33
2018-06-21T14:04:03.478Z,0.83
2018-06-21T14:06:37.855Z,3.47
2018-06-21T14:09:12.738Z,1.60
2018-06-21T14:11:46.954Z,5.03
2018-06-21T14:14:21.314Z,1.30
2018-06-21T14:16:55.499Z,1.07
2018-06-21T14:19:29.748Z,1.20
2018-06-21T14:22:03.970Z,1.70
2018-06-21T14:24:38.427Z,4.57
2018-06-21T14:27:12.743Z,1.60
2018-06-21T14:29:47.012Z,1.77
2018-06-21T14:32:21.354Z,1.63
2018-06-21T14:34:55.740Z,1.70
2018-06-21T14:37:29.964Z,1.00
2018-06-21T14:40:04.227Z,1.40
2018-06-21T14:42:38.632Z,4.90
2018-06-21T14:45:12.886Z,2.47
2018-06-21T14:47:47.390Z,1.93
2018-06-21T14:50:21.598Z,1.10
2018-06-21T14:52:55.762Z,1.57
2018-06-21T14:55:30.039Z,3.07
2018-06-21T14:58:04.410Z,1.10
2018-06-21T15:00:38.684Z,0.90
2018-06-21T15:03:13.362Z,4.10
2018-06-21T15:05:47.634Z,1.33
2018-06-21T15:08:21.894Z,7.00
2018-06-21T15:10:56.171Z,1.50
2018-06-21T15:13:30.418Z,1.17
2018-06-21T15:16:04.875Z,1.13
2018-06-21T15:18:39.118Z,2.07
2018-06-21T15:21:13.667Z,2.33
2018-06-21T15:23:48.232Z,18.27
2018-06-21T15:26:22.513Z,1.03
2018-06-21T15:28:56.724Z,1.73
2018-06-21T15:31:31.104Z,17.70
2018-06-21T15:34:05.334Z,1.37
2018-06-21T15:36:39.520Z,3.43
2018-06-21T15:39:20.398Z,5.53
2018-06-21T15:41:54.662Z,1.93
2018-06-21T15:44:28.876Z,0.67
2018-06-21T15:47:03.252Z,0.87
2018-06-21T15:49:37.688Z,0.80
2018-06-21T15:52:11.970Z,1.10
2018-06-21T15:54:46.225Z,1.20
2018-06-21T15:57:20.609Z,2.57
2018-06-21T15:59:54.862Z,1.37
2018-06-21T16:02:29.331Z,1.07
2018-06-21T16:05:03.330Z,1.37
2018-06-21T16:07:37.845Z,1.07
2018-06-21T16:10:12.147Z,1.40
2018-06-21T16:12:46.571Z,2.13
2018-06-21T16:15:20.928Z,1.03
2018-06-21T16:17:55.226Z,1.00
2018-06-21T16:20:29.535Z,0.87
2018-06-21T16:23:03.739Z,0.97
2018-06-21T16:25:38.187Z,0.97
2018-06-21T16:28:12.505Z,0.90
2018-06-21T16:30:46.720Z,0.90
2018-06-21T16:33:20.857Z,0.83
2018-06-21T16:35:55.115Z,0.63
2018-06-21T16:38:29.463Z,0.70
2018-06-21T16:41:03.839Z,1.00
2018-06-21T16:43:38.190Z,0.80
2018-06-21T16:46:12.600Z,0.60
2018-06-21T16:48:47.226Z,1.37
2018-06-21T16:51:21.503Z,0.70
2018-06-21T16:53:55.779Z,1.00
2018-06-21T16:56:29.937Z,0.97
2018-06-21T16:59:04.198Z,0.67
2018-06-21T17:01:38.499Z,0.70
2018-06-21T17:04:12.681Z,0.70
2018-06-21T17:06:47.231Z,0.70
2018-06-21T17:09:21.654Z,0.83
2018-06-21T17:11:55.890Z,0.83
2018-06-21T17:14:30.238Z,4.47
2018-06-21T17:17:04.594Z,0.90
2018-06-21T17:19:38.823Z,0.70
2018-06-21T17:22:13.197Z,0.70
2018-06-21T17:24:47.379Z,0.77
2018-06-21T17:27:21.675Z,0.67
2018-06-21T17:29:55.934Z,0.80
2018-06-21T17:32:30.097Z,1.10
2018-06-21T17:35:04.457Z,0.67
2018-06-21T17:37:38.720Z,0.77
2018-06-21T17:40:13.077Z,0.70
2018-06-21T17:42:47.437Z,0.83
2018-06-21T17:45:21.762Z,0.70
2018-06-21T17:47:55.956Z,1.10
2018-06-21T17:50:30.230Z,0.93
2018-06-21T17:53:04.322Z,0.70
2018-06-21T17:55:38.750Z,0.60
2018-06-21T17:58:13.039Z,0.67
2018-06-21T18:00:47.248Z,0.80
2018-06-21T18:03:21.531Z,1.00
2018-06-21T18:05:55.958Z,0.90
2018-06-21T18:08:30.401Z,0.70
2018-06-21T18:11:04.762Z,1.37
2018-06-21T18:13:39.043Z,0.90
2018-06-21T18:16:13.409Z,0.83
2018-06-21T18:18:47.526Z,1.17
2018-06-21T18:21:22.459Z,1.00
2018-06-21T18:23:56.671Z,1.10
2018-06-21T18:26:30.814Z,1.10
2018-06-21T18:29:05.329Z,0.83
2018-06-21T18:31:39.737Z,1.40
2018-06-21T18:34:14.032Z,1.40
2018-06-21T18:36:48.290Z,1.20
2018-06-21T18:39:22.589Z,0.80
2018-06-21T18:41:56.979Z,0.90
2018-06-21T18:44:31.302Z,1.00
2018-06-21T18:47:05.888Z,0.87
2018-06-21T18:49:40.376Z,1.13
2018-06-21T18:52:14.982Z,0.90
2018-06-21T18:54:49.329Z,0.87
2018-06-21T18:57:23.494Z,1.43
2018-06-21T18:59:57.784Z,1.20
2018-06-21T19:02:32.050Z,1.20
2018-06-21T19:05:06.608Z,0.90
2018-06-21T19:07:41.922Z,1.30
2018-06-21T19:10:21.575Z,0.90
2018-06-21T19:12:55.772Z,1.27
2018-06-21T19:15:30.135Z,0.83
2018-06-21T19:18:04.318Z,1.20
2018-06-21T19:20:38.531Z,1.13
2018-06-21T19:23:12.910Z,1.03
2018-06-21T19:25:47.405Z,1.00
2018-06-21T19:28:21.547Z,1.23
2018-06-21T19:30:55.736Z,0.70
2018-06-21T19:33:30.180Z,0.80
2018-06-21T19:36:04.519Z,0.80
2018-06-21T19:38:38.810Z,0.70
2018-06-21T19:41:13.028Z,0.70
2018-06-21T19:43:47.286Z,0.80
2018-06-21T19:46:21.739Z,1.10
2018-06-21T19:48:56.004Z,0.90
2018-06-21T19:51:30.273Z,1.00
2018-06-21T19:54:04.707Z,0.90
2018-06-21T19:56:39.096Z,1.10
2018-06-21T19:59:13.324Z,1.23
2018-06-21T20:01:47.724Z,0.90
2018-06-21T20:04:22.034Z,1.40
2018-06-21T20:06:56.490Z,1.20
2018-06-21T20:09:30.932Z,0.97
2018-06-21T20:12:05.258Z,1.20
2018-06-21T20:14:39.525Z,1.00
2018-06-21T20:17:13.994Z,0.80
2018-06-21T20:19:53.574Z,1.50
2018-06-21T20:22:27.781Z,1.33
2018-06-21T20:25:02.135Z,1.30
2018-06-21T20:27:36.466Z,1.80
2018-06-21T20:30:10.337Z,1.13
2018-06-21T20:32:44.662Z,1.20
2018-06-21T20:35:18.961Z,1.03
2018-06-21T20:37:53.170Z,0.97
2018-06-21T20:40:27.475Z,1.20
2018-06-21T20:43:01.642Z,1.37
2018-06-21T20:45:35.918Z,1.33
2018-06-21T20:48:10.166Z,1.70
2018-06-21T20:50:44.882Z,1.43
2018-06-21T20:53:19.249Z,1.30
2018-06-21T20:55:53.814Z,1.40
2018-06-21T20:58:28.038Z,1.87
2018-06-21T21:01:02.324Z,1.47
2018-06-21T21:03:36.888Z,2.00
2018-06-21T21:06:11.182Z,1.57
2018-06-21T21:08:45.482Z,1.10
2018-06-21T21:11:20.278Z,1.43
2018-06-21T21:13:54.482Z,1.50
2018-06-21T21:16:28.765Z,1.30
2018-06-21T21:19:03.749Z,1.50
2018-06-21T21:21:38.023Z,1.60
2018-06-21T21:24:12.283Z,1.73
2018-06-21T21:26:46.699Z,1.33
2018-06-21T21:29:21.086Z,1.00
2018-06-21T21:31:55.347Z,1.20
2018-06-21T21:34:29.705Z,1.57
2018-06-21T21:37:04.126Z,1.30
2018-06-21T21:39:38.412Z,1.40
2018-06-21T21:42:12.682Z,1.20
2018-06-21T21:44:46.976Z,1.40
2018-06-21T21:47:21.240Z,1.00
2018-06-21T21:49:55.735Z,1.27
2018-06-21T21:52:29.901Z,1.30
2018-06-21T21:55:04.423Z,1.40
2018-06-21T21:57:38.621Z,1.40
2018-06-21T22:00:53.672Z,1.20
2018-06-21T22:03:27.966Z,1.23
2018-06-21T22:06:02.121Z,1.80
2018-06-21T22:08:36.281Z,1.30
2018-06-21T22:11:10.697Z,1.13
2018-06-21T22:13:44.991Z,1.50
2018-06-21T22:16:19.262Z,1.20
2018-06-21T22:18:53.550Z,1.43
2018-06-21T22:21:27.956Z,1.60
2018-06-21T22:24:02.111Z,2.40
2018-06-21T22:26:36.324Z,2.37
2018-06-21T22:29:10.777Z,2.30
2018-06-21T22:31:45.035Z,1.83
2018-06-21T22:34:19.570Z,2.00
2018-06-21T22:36:53.779Z,2.13
2018-06-21T22:39:28.052Z,1.87
2018-06-21T22:42:02.231Z,1.90
2018-06-21T22:44:36.538Z,1.90
2018-06-21T22:47:10.707Z,1.60
2018-06-21T22:49:45.112Z,1.80
2018-06-21T22:52:19.531Z,1.53
2018-06-21T22:54:53.855Z,1.60
2018-06-21T22:57:28.294Z,1.63
2018-06-21T23:00:02.546Z,1.57
2018-06-21T23:02:36.966Z,1.70
2018-06-21T23:05:11.246Z,1.30
2018-06-21T23:07:45.563Z,1.50
2018-06-21T23:10:19.927Z,1.70
2018-06-21T23:12:54.298Z,1.60
2018-06-21T23:15:28.667Z,1.87
2018-06-21T23:18:02.846Z,1.40
2018-06-21T23:20:37.197Z,1.53
2018-06-21T23:23:11.469Z,1.60
2018-06-21T23:25:45.875Z,1.70
2018-06-21T23:28:20.300Z,1.93
2018-06-21T23:30:54.586Z,2.10
2018-06-21T23:33:28.871Z,1.47
2018-06-21T23:36:03.263Z,1.70
2018-06-21T23:38:37.704Z,1.77
2018-06-21T23:41:11.960Z,2.33
2018-06-21T23:43:46.118Z,2.10
2018-06-21T23:46:20.403Z,3.10
2018-06-21T23:48:54.790Z,2.30
2018-06-21T23:51:29.151Z,1.97
2018-06-21T23:54:03.567Z,2.13
2018-06-21T23:56:38.043Z,1.73
2018-06-21T23:59:12.242Z,1.77
